createdAt,value
2017-03-29T00:00:44.695Z,20.79
2017-03-29T00:01:55.182Z,20.87
2017-03-29T00:03:05.618Z,20.8
2017-03-29T00:04:15.904Z,20.85
2017-03-29T00:05:26.322Z,20.84
2017-03-29T00:06:36.815Z,20.87
2017-03-29T00:07:47.282Z,20.79
2017-03-29T00:08:57.643Z,20.77
2017-03-29T00:10:07.534Z,20.82
2017-03-29T00:11:17.355Z,20.8
2017-03-29T00:12:27.622Z,20.85
2017-03-29T00:13:38.276Z,20.77
2017-03-29T00:14:48.662Z,20.79
2017-03-29T00:15:58.559Z,20.87
2017-03-29T00:17:09.156Z,20.8
2017-03-29T00:18:19.659Z,20.84
2017-03-29T00:19:30.167Z,20.84
2017-03-29T00:20:40.556Z,20.76
2017-03-29T00:21:50.805Z,20.82
2017-03-29T00:23:01.043Z,20.76
2017-03-29T00:24:11.283Z,20.8
2017-03-29T00:25:21.216Z,20.87
2017-03-29T00:26:31.146Z,20.82
2017-03-29T00:27:41.073Z,20.82
2017-03-29T00:28:51.004Z,20.84
2017-03-29T00:30:00.937Z,20.79
2017-03-29T00:31:11.179Z,20.8
2017-03-29T00:32:21.120Z,20.84
2017-03-29T00:33:31.045Z,20.84
2017-03-29T00:34:41.287Z,20.8
2017-03-29T00:35:50.905Z,20.79
2017-03-29T00:37:01.144Z,20.76
2017-03-29T00:38:10.764Z,20.87
2017-03-29T00:39:20.382Z,20.8
2017-03-29T00:40:30.618Z,20.84
2017-03-29T00:41:40.862Z,20.85
2017-03-29T00:42:50.476Z,20.84
2017-03-29T00:44:00.399Z,20.84
2017-03-29T00:45:10.358Z,20.76
2017-03-29T00:46:20.302Z,20.79
2017-03-29T00:47:30.545Z,20.82
2017-03-29T00:48:40.787Z,20.88
2017-03-29T00:49:51.050Z,20.77
2017-03-29T00:51:01.302Z,20.77
2017-03-29T00:52:10.909Z,20.8
2017-03-29T00:53:21.147Z,20.82
2017-03-29T00:54:30.445Z,20.76
2017-03-29T00:55:40.373Z,20.77
2017-03-29T00:56:50.304Z,20.77
2017-03-29T00:58:00.543Z,20.88
2017-03-29T00:59:10.160Z,20.77
2017-03-29T01:00:20.400Z,20.8
2017-03-29T01:01:30.636Z,20.85
2017-03-29T01:02:40.252Z,20.84
2017-03-29T01:03:50.515Z,20.79
2017-03-29T01:05:00.127Z,20.79
2017-03-29T01:06:10.060Z,20.74
2017-03-29T01:07:20.303Z,20.77
2017-03-29T01:08:30.230Z,20.74
2017-03-29T01:09:40.467Z,20.77
2017-03-29T01:10:50.080Z,20.85
2017-03-29T01:12:00.320Z,20.8
2017-03-29T01:13:10.570Z,20.84
2017-03-29T01:14:20.806Z,20.72
2017-03-29T01:15:31.050Z,20.87
2017-03-29T01:16:41.299Z,20.84
2017-03-29T01:17:51.542Z,20.76
2017-03-29T01:19:01.165Z,20.87
2017-03-29T01:20:11.402Z,20.74
2017-03-29T01:21:21.328Z,20.77
2017-03-29T01:22:31.582Z,20.8
2017-03-29T01:23:41.831Z,20.87
2017-03-29T01:24:52.078Z,20.8
2017-03-29T01:26:02.016Z,20.85
2017-03-29T01:27:12.260Z,20.8
2017-03-29T01:28:22.507Z,20.8
2017-03-29T01:29:32.754Z,20.8
2017-03-29T01:30:42.680Z,20.88
2017-03-29T01:31:52.916Z,20.82
2017-03-29T01:33:03.157Z,20.85
2017-03-29T01:34:13.393Z,20.92
2017-03-29T01:35:23.323Z,20.77
2017-03-29T01:36:33.561Z,20.77
2017-03-29T01:37:43.175Z,20.8
2017-03-29T01:38:53.423Z,20.8
2017-03-29T01:40:02.727Z,20.84
2017-03-29T01:41:12.041Z,20.82
2017-03-29T01:42:21.662Z,20.88
2017-03-29T01:43:31.606Z,20.77
2017-03-29T01:44:41.849Z,20.8
2017-03-29T01:45:52.112Z,20.8
2017-03-29T01:47:01.728Z,20.84
2017-03-29T01:48:11.971Z,20.8
2017-03-29T01:49:22.221Z,20.77
2017-03-29T01:50:32.466Z,20.79
2017-03-29T01:51:42.707Z,20.84
2017-03-29T01:52:52.636Z,20.79
2017-03-29T01:54:02.565Z,20.84
2017-03-29T01:55:12.801Z,20.84
2017-03-29T01:56:23.046Z,20.8
2017-03-29T01:57:33.287Z,20.79
2017-03-29T01:58:43.211Z,20.8
2017-03-29T01:59:53.154Z,20.72
2017-03-29T02:01:03.394Z,20.74
2017-03-29T02:02:13.645Z,20.72
2017-03-29T02:03:23.890Z,20.76
2017-03-29T02:04:34.134Z,20.76
2017-03-29T02:05:43.758Z,20.76
2017-03-29T02:06:53.687Z,20.74
2017-03-29T02:08:03.928Z,20.77
2017-03-29T02:09:13.231Z,20.77
2017-03-29T02:10:23.467Z,20.8
2017-03-29T02:11:33.707Z,20.74
2017-03-29T02:12:43.635Z,20.77
2017-03-29T02:13:53.882Z,20.76
2017-03-29T02:15:03.183Z,20.67
2017-03-29T02:16:12.799Z,20.85
2017-03-29T02:17:23.042Z,20.73
2017-03-29T02:18:33.287Z,20.73
2017-03-29T02:19:43.533Z,20.76
2017-03-29T02:20:53.462Z,20.76
2017-03-29T02:22:03.398Z,20.79
2017-03-29T02:23:13.644Z,20.79
2017-03-29T02:24:23.879Z,20.8
2017-03-29T02:25:34.126Z,20.77
2017-03-29T02:26:44.378Z,20.73
2017-03-29T02:27:54.616Z,20.72
2017-03-29T02:29:04.859Z,20.76
2017-03-29T02:30:14.673Z,20.76
2017-03-29T02:31:25.582Z,20.76
2017-03-29T02:32:35.820Z,20.82
2017-03-29T02:33:46.072Z,20.79
2017-03-29T02:34:56.315Z,20.74
2017-03-29T02:36:06.566Z,20.77
2017-03-29T02:37:16.498Z,20.72
2017-03-29T02:38:26.123Z,20.79
2017-03-29T02:39:36.376Z,20.8
2017-03-29T02:40:46.311Z,20.79
2017-03-29T02:41:56.549Z,20.74
2017-03-29T02:43:06.785Z,20.74
2017-03-29T02:44:16.713Z,20.79
2017-03-29T02:45:26.641Z,20.72
2017-03-29T02:46:36.587Z,20.73
2017-03-29T02:47:46.824Z,20.91
2017-03-29T02:48:57.074Z,20.87
2017-03-29T02:50:07.329Z,20.85
2017-03-29T02:51:17.584Z,20.76
2017-03-29T02:52:27.200Z,20.77
2017-03-29T02:53:36.813Z,20.89
2017-03-29T02:54:46.741Z,20.82
2017-03-29T02:55:57.013Z,20.76
2017-03-29T02:57:06.945Z,20.82
2017-03-29T02:58:17.206Z,20.8
2017-03-29T02:59:27.447Z,20.8
2017-03-29T03:00:37.380Z,20.76
2017-03-29T03:01:47.616Z,20.82
2017-03-29T03:02:57.547Z,20.77
2017-03-29T03:04:07.492Z,20.8
2017-03-29T03:05:17.106Z,20.77
2017-03-29T03:06:27.034Z,20.76
2017-03-29T03:07:36.655Z,20.69
2017-03-29T03:08:46.902Z,20.77
2017-03-29T03:09:57.140Z,20.76
2017-03-29T03:11:07.379Z,20.8
2017-03-29T03:12:17.631Z,20.77
2017-03-29T03:13:27.884Z,20.82
2017-03-29T03:14:38.124Z,20.77
2017-03-29T03:15:48.376Z,20.79
2017-03-29T03:16:58.615Z,20.76
2017-03-29T03:18:08.551Z,20.72
2017-03-29T03:19:18.474Z,20.61
2017-03-29T03:20:28.721Z,20.8
2017-03-29T03:21:38.649Z,20.77
2017-03-29T03:22:48.579Z,20.79
2017-03-29T03:23:58.501Z,20.77
2017-03-29T03:25:08.439Z,20.77
2017-03-29T03:26:18.682Z,20.76
2017-03-29T03:27:28.612Z,20.73
2017-03-29T03:28:38.541Z,20.77
2017-03-29T03:29:48.784Z,20.77
2017-03-29T03:30:59.026Z,20.73
2017-03-29T03:32:08.961Z,20.76
2017-03-29T03:33:18.888Z,20.77
2017-03-29T03:34:28.498Z,20.76
2017-03-29T03:35:38.736Z,20.72
2017-03-29T03:36:48.977Z,20.77
2017-03-29T03:37:59.221Z,20.8
2017-03-29T03:39:09.151Z,20.7
2017-03-29T03:40:19.393Z,20.8
2017-03-29T03:41:29.325Z,20.79
2017-03-29T03:42:39.562Z,20.8
2017-03-29T03:43:49.796Z,20.8
2017-03-29T03:44:59.412Z,20.77
2017-03-29T03:46:09.657Z,20.76
2017-03-29T03:47:19.592Z,20.8
2017-03-29T03:48:29.837Z,20.77
2017-03-29T03:49:40.079Z,20.82
2017-03-29T03:50:50.312Z,20.64
2017-03-29T03:52:00.244Z,20.67
2017-03-29T03:53:10.186Z,20.76
2017-03-29T03:54:20.425Z,20.77
2017-03-29T03:55:30.357Z,20.77
2017-03-29T03:56:40.605Z,20.77
2017-03-29T03:57:50.535Z,20.79
2017-03-29T03:59:00.461Z,20.85
2017-03-29T04:00:10.083Z,20.8
2017-03-29T04:01:20.327Z,20.76
2017-03-29T04:02:30.262Z,20.79
2017-03-29T04:03:40.527Z,20.82
2017-03-29T04:04:50.765Z,20.76
2017-03-29T04:06:01.006Z,20.76
2017-03-29T04:07:11.446Z,20.76
2017-03-29T04:08:21.688Z,20.77
2017-03-29T04:09:31.925Z,20.76
2017-03-29T04:10:41.226Z,20.74
2017-03-29T04:11:50.844Z,20.82
2017-03-29T04:13:01.113Z,20.73
2017-03-29T04:14:11.349Z,20.74
2017-03-29T04:15:21.636Z,20.72
2017-03-29T04:16:31.875Z,20.8
2017-03-29T04:17:42.111Z,20.76
2017-03-29T04:18:52.033Z,20.76
2017-03-29T04:20:02.270Z,20.77
2017-03-29T04:21:12.197Z,20.66
2017-03-29T04:22:22.126Z,20.72
2017-03-29T04:23:31.744Z,20.73
2017-03-29T04:24:41.676Z,20.77
2017-03-29T04:25:51.606Z,20.74
2017-03-29T04:27:01.850Z,20.77
2017-03-29T04:28:11.463Z,20.76
2017-03-29T04:29:21.720Z,20.74
2017-03-29T04:30:31.958Z,20.77
2017-03-29T04:31:42.199Z,20.77
2017-03-29T04:32:52.125Z,20.77
2017-03-29T04:34:02.052Z,20.77
2017-03-29T04:35:11.991Z,20.69
2017-03-29T04:36:21.917Z,20.76
2017-03-29T04:37:32.208Z,20.77
2017-03-29T04:38:42.449Z,20.77
2017-03-29T04:39:52.370Z,20.77
2017-03-29T04:41:02.612Z,20.73
2017-03-29T04:42:12.545Z,20.76
2017-03-29T04:43:22.782Z,20.76
2017-03-29T04:44:33.022Z,20.74
2017-03-29T04:45:43.263Z,20.73
2017-03-29T04:46:53.497Z,20.76
2017-03-29T04:48:03.421Z,20.76
2017-03-29T04:49:13.728Z,20.79
2017-03-29T04:50:23.999Z,20.77
2017-03-29T04:51:34.258Z,20.74
2017-03-29T04:52:44.773Z,20.73
2017-03-29T04:53:54.833Z,20.77
2017-03-29T04:55:05.109Z,20.73
2017-03-29T04:56:15.375Z,20.74
2017-03-29T04:57:25.298Z,20.76
2017-03-29T04:58:35.537Z,20.8
2017-03-29T04:59:45.773Z,20.85
2017-03-29T05:00:55.702Z,20.8
2017-03-29T05:02:05.948Z,20.79
2017-03-29T05:03:15.561Z,20.77
2017-03-29T05:04:25.800Z,20.74
2017-03-29T05:05:35.724Z,20.62
2017-03-29T05:06:45.964Z,20.77
2017-03-29T05:07:56.208Z,20.77
2017-03-29T05:09:06.134Z,20.73
2017-03-29T05:10:16.056Z,20.8
2017-03-29T05:11:26.302Z,20.76
2017-03-29T05:12:36.545Z,20.72
2017-03-29T05:13:46.784Z,20.79
2017-03-29T05:14:56.701Z,20.74
2017-03-29T05:16:06.947Z,20.77
2017-03-29T05:17:16.877Z,20.7
2017-03-29T05:18:27.118Z,20.79
2017-03-29T05:19:37.358Z,20.76
2017-03-29T05:20:46.972Z,20.72
2017-03-29T05:21:57.217Z,20.73
2017-03-29T05:23:07.463Z,20.79
2017-03-29T05:24:17.423Z,20.76
2017-03-29T05:25:27.355Z,20.7
2017-03-29T05:26:37.599Z,20.79
2017-03-29T05:27:47.536Z,20.74
2017-03-29T05:28:57.145Z,20.74
2017-03-29T05:30:07.387Z,20.72
2017-03-29T05:31:17.316Z,20.66
2017-03-29T05:32:27.274Z,20.64
2017-03-29T05:33:37.207Z,20.76
2017-03-29T05:34:46.832Z,20.74
2017-03-29T05:35:57.071Z,20.76
2017-03-29T05:37:07.311Z,20.72
2017-03-29T05:38:17.237Z,20.72
2017-03-29T05:39:27.159Z,20.74
2017-03-29T05:40:37.411Z,20.72
2017-03-29T05:41:47.651Z,20.59
2017-03-29T05:42:57.898Z,20.73
2017-03-29T05:44:07.827Z,20.72
2017-03-29T05:45:18.094Z,20.66
2017-03-29T05:46:28.028Z,20.67
2017-03-29T05:47:37.950Z,20.72
2017-03-29T05:48:47.880Z,20.74
2017-03-29T05:49:57.184Z,20.72
2017-03-29T05:51:07.110Z,20.7
2017-03-29T05:52:17.034Z,20.73
2017-03-29T05:53:27.275Z,20.72
2017-03-29T05:54:37.515Z,20.69
2017-03-29T05:55:47.447Z,20.17
2017-03-29T05:56:57.372Z,19.76
2017-03-29T05:58:07.612Z,19.69
2017-03-29T05:59:17.862Z,19.44
2017-03-29T06:00:27.792Z,19.18
2017-03-29T06:01:37.722Z,18.99
2017-03-29T06:02:47.653Z,19
2017-03-29T06:03:56.949Z,18.87
2017-03-29T06:05:07.193Z,18.82
2017-03-29T06:06:17.428Z,18.76
2017-03-29T06:07:27.357Z,18.73
2017-03-29T06:08:37.283Z,18.69
2017-03-29T06:09:47.521Z,18.69
2017-03-29T06:10:57.142Z,18.67
2017-03-29T06:12:07.381Z,18.7
2017-03-29T06:13:17.322Z,18.67
2017-03-29T06:14:27.253Z,18.66
2017-03-29T06:15:37.499Z,18.62
2017-03-29T06:16:47.431Z,18.63
2017-03-29T06:17:57.356Z,18.67
2017-03-29T06:19:07.281Z,18.63
2017-03-29T06:20:17.533Z,18.6
2017-03-29T06:21:27.482Z,18.69
2017-03-29T06:22:37.409Z,18.62
2017-03-29T06:23:47.339Z,18.72
2017-03-29T06:24:56.642Z,18.82
2017-03-29T06:26:06.886Z,18.69
2017-03-29T06:27:17.130Z,18.58
2017-03-29T06:28:26.741Z,18.58
2017-03-29T06:29:36.989Z,18.6
2017-03-29T06:30:46.916Z,18.67
2017-03-29T06:31:56.857Z,18.63
2017-03-29T06:33:07.092Z,18.7
2017-03-29T06:34:17.014Z,18.69
2017-03-29T06:35:26.944Z,18.6
2017-03-29T06:36:36.874Z,18.75
2017-03-29T06:37:46.494Z,18.72
2017-03-29T06:38:56.730Z,18.62
2017-03-29T06:40:06.654Z,18.63
2017-03-29T06:41:16.891Z,18.72
2017-03-29T06:42:26.822Z,18.55
2017-03-29T06:43:37.060Z,18.6
2017-03-29T06:44:47.344Z,18.6
2017-03-29T06:45:57.605Z,18.78
2017-03-29T06:47:07.844Z,18.88
2017-03-29T06:48:18.088Z,18.87
2017-03-29T06:49:27.707Z,18.78
2017-03-29T06:50:37.634Z,18.8
2017-03-29T06:51:47.879Z,18.78
2017-03-29T06:52:57.833Z,18.72
2017-03-29T06:54:07.768Z,18.82
2017-03-29T06:55:17.695Z,18.85
2017-03-29T06:56:27.304Z,18.91
2017-03-29T06:57:37.232Z,18.8
2017-03-29T06:58:47.471Z,18.87
2017-03-29T06:59:56.454Z,18.94
2017-03-29T07:01:06.378Z,19.07
2017-03-29T07:02:16.629Z,19.08
2017-03-29T07:03:26.261Z,19.02
2017-03-29T07:04:36.752Z,18.95
2017-03-29T07:05:47.359Z,18.91
2017-03-29T07:06:56.974Z,18.94
2017-03-29T07:08:07.211Z,18.91
2017-03-29T07:09:17.136Z,18.91
2017-03-29T07:10:27.067Z,18.98
2017-03-29T07:11:36.998Z,18.99
2017-03-29T07:12:46.922Z,19.07
2017-03-29T07:13:56.856Z,19.14
2017-03-29T07:15:06.780Z,19.22
2017-03-29T07:16:17.017Z,19.19
2017-03-29T07:17:27.264Z,19.28
2017-03-29T07:18:37.199Z,19.43
2017-03-29T07:19:47.126Z,19.5
2017-03-29T07:20:57.369Z,19.54
2017-03-29T07:22:07.613Z,19.47
2017-03-29T07:23:17.856Z,19.44
2017-03-29T07:24:28.100Z,19.39
2017-03-29T07:25:38.344Z,19.28
2017-03-29T07:26:48.585Z,19.14
2017-03-29T07:27:57.889Z,19.06
2017-03-29T07:29:08.132Z,19.08
2017-03-29T07:30:18.373Z,19.1
2017-03-29T07:31:28.613Z,19.13
2017-03-29T07:32:38.861Z,19.07
2017-03-29T07:33:48.807Z,19.08
2017-03-29T07:34:58.734Z,19.11
2017-03-29T07:36:08.979Z,19.14
2017-03-29T07:37:19.219Z,19.23
2017-03-29T07:38:29.153Z,19.13
2017-03-29T07:39:39.082Z,19.18
2017-03-29T07:40:49.011Z,19.14
2017-03-29T07:41:58.619Z,19.22
2017-03-29T07:43:08.858Z,19.4
2017-03-29T07:44:18.171Z,19.55
2017-03-29T07:45:28.407Z,19.61
2017-03-29T07:46:38.020Z,19.69
2017-03-29T07:47:48.255Z,19.69
2017-03-29T07:48:58.185Z,19.71
2017-03-29T07:50:08.457Z,19.84
2017-03-29T07:51:18.725Z,19.98
2017-03-29T07:52:28.666Z,20.16
2017-03-29T07:53:38.596Z,20.23
2017-03-29T07:54:48.526Z,20.31
2017-03-29T07:55:58.452Z,20.33
2017-03-29T07:57:07.753Z,20.21
2017-03-29T07:58:17.692Z,20.32
2017-03-29T07:59:27.932Z,20.23
2017-03-29T08:00:37.854Z,20.31
2017-03-29T08:01:48.096Z,20.28
2017-03-29T08:02:58.343Z,20.36
2017-03-29T08:04:08.284Z,20.33
2017-03-29T08:05:18.524Z,20.33
2017-03-29T08:06:28.464Z,20.38
2017-03-29T08:07:38.706Z,20.43
2017-03-29T08:08:48.633Z,20.48
2017-03-29T08:09:58.560Z,20.48
2017-03-29T08:11:08.816Z,20.51
2017-03-29T08:12:19.059Z,20.47
2017-03-29T08:13:29.293Z,20.2
2017-03-29T08:14:39.233Z,19.95
2017-03-29T08:15:49.473Z,19.8
2017-03-29T08:16:59.398Z,19.61
2017-03-29T08:18:09.645Z,19.56
2017-03-29T08:19:19.881Z,19.58
2017-03-29T08:20:30.137Z,19.74
2017-03-29T08:21:40.388Z,19.94
2017-03-29T08:22:50.309Z,20.08
2017-03-29T08:24:00.549Z,20.2
2017-03-29T08:25:10.484Z,20.23
2017-03-29T08:26:20.729Z,20.26
2017-03-29T08:27:30.969Z,20.35
2017-03-29T08:28:41.209Z,20.33
2017-03-29T08:29:50.832Z,20.31
2017-03-29T08:31:00.762Z,20.33
2017-03-29T08:32:11.007Z,20.35
2017-03-29T08:33:21.252Z,20.36
2017-03-29T08:34:31.185Z,20.43
2017-03-29T08:35:41.117Z,20.42
2017-03-29T08:36:51.051Z,20.38
2017-03-29T08:38:00.663Z,20.47
2017-03-29T08:39:10.279Z,20.51
2017-03-29T08:40:20.206Z,20.48
2017-03-29T08:41:30.138Z,20.52
2017-03-29T08:42:40.384Z,20.48
2017-03-29T08:43:50.623Z,20.5
2017-03-29T08:45:00.859Z,20.48
2017-03-29T08:46:10.791Z,20.51
2017-03-29T08:47:21.030Z,20.51
2017-03-29T08:48:31.270Z,20.5
2017-03-29T08:49:40.895Z,20.48
2017-03-29T08:50:51.137Z,20.55
2017-03-29T08:52:01.377Z,20.51
2017-03-29T08:53:11.633Z,20.43
2017-03-29T08:54:21.876Z,20.55
2017-03-29T08:55:32.120Z,20.59
2017-03-29T08:56:42.052Z,20.58
2017-03-29T08:57:51.984Z,20.59
2017-03-29T08:59:01.599Z,20.64
2017-03-29T09:00:11.841Z,20.62
2017-03-29T09:01:22.089Z,20.66
2017-03-29T09:02:32.340Z,20.62
2017-03-29T09:03:42.583Z,20.59
2017-03-29T09:04:52.506Z,20.66
2017-03-29T09:06:02.751Z,20.62
2017-03-29T09:07:12.991Z,20.57
2017-03-29T09:08:23.227Z,20.72
2017-03-29T09:09:32.843Z,20.61
2017-03-29T09:10:43.088Z,20.59
2017-03-29T09:11:53.329Z,20.64
2017-03-29T09:13:02.949Z,20.61
2017-03-29T09:14:12.874Z,20.67
2017-03-29T09:15:23.111Z,20.72
2017-03-29T09:16:33.351Z,20.76
2017-03-29T09:17:43.280Z,20.72
2017-03-29T09:18:53.205Z,20.72
2017-03-29T09:20:03.442Z,20.79
2017-03-29T09:21:13.062Z,20.79
2017-03-29T09:22:23.310Z,20.76
2017-03-29T09:23:33.563Z,20.73
2017-03-29T09:24:43.494Z,20.72
2017-03-29T09:25:53.110Z,20.82
2017-03-29T09:27:03.033Z,20.82
2017-03-29T09:28:12.649Z,20.77
2017-03-29T09:29:22.584Z,20.76
2017-03-29T09:30:32.515Z,20.76
2017-03-29T09:31:42.472Z,20.66
2017-03-29T09:32:52.711Z,20.77
2017-03-29T09:34:02.643Z,20.76
2017-03-29T09:35:12.880Z,20.77
2017-03-29T09:36:23.124Z,20.64
2017-03-29T09:37:33.370Z,20.72
2017-03-29T09:38:43.300Z,20.76
2017-03-29T09:39:53.227Z,20.76
2017-03-29T09:41:03.465Z,20.8
2017-03-29T09:42:13.708Z,20.77
2017-03-29T09:43:23.942Z,20.79
2017-03-29T09:44:33.564Z,20.84
2017-03-29T09:45:43.803Z,20.72
2017-03-29T09:46:54.061Z,20.89
2017-03-29T09:48:04.300Z,20.82
2017-03-29T09:49:14.541Z,20.8
2017-03-29T09:50:24.472Z,20.74
2017-03-29T09:51:34.712Z,20.77
2017-03-29T09:52:44.955Z,20.79
2017-03-29T09:53:55.196Z,20.73
2017-03-29T09:55:05.129Z,20.76
2017-03-29T09:56:15.369Z,20.79
2017-03-29T09:57:24.985Z,20.73
2017-03-29T09:58:34.915Z,20.72
2017-03-29T09:59:45.162Z,20.7
2017-03-29T10:00:55.440Z,20.8
2017-03-29T10:02:04.758Z,20.77
2017-03-29T10:03:14.999Z,20.66
2017-03-29T10:04:25.240Z,20.73
2017-03-29T10:05:35.488Z,20.74
2017-03-29T10:06:45.727Z,20.88
2017-03-29T10:07:55.658Z,20.7
2017-03-29T10:09:05.270Z,20.77
2017-03-29T10:10:15.506Z,20.77
2017-03-29T10:11:25.125Z,20.76
2017-03-29T10:12:35.064Z,20.79
2017-03-29T10:13:45.311Z,20.72
2017-03-29T10:14:55.568Z,20.76
2017-03-29T10:16:05.812Z,20.76
2017-03-29T10:17:15.749Z,20.76
2017-03-29T10:18:25.990Z,20.84
2017-03-29T10:19:36.234Z,20.79
2017-03-29T10:20:46.476Z,20.84
2017-03-29T10:21:56.727Z,20.73
2017-03-29T10:23:06.970Z,20.77
2017-03-29T10:24:16.899Z,20.79
2017-03-29T10:25:26.833Z,20.79
2017-03-29T10:26:37.073Z,20.79
2017-03-29T10:27:47.321Z,20.79
2017-03-29T10:28:57.563Z,20.74
2017-03-29T10:30:07.496Z,20.82
2017-03-29T10:31:17.739Z,20.84
2017-03-29T10:32:27.980Z,20.76
2017-03-29T10:33:37.909Z,20.84
2017-03-29T10:34:48.152Z,20.84
2017-03-29T10:35:58.402Z,20.82
2017-03-29T10:37:08.642Z,20.84
2017-03-29T10:38:18.566Z,20.79
2017-03-29T10:39:28.180Z,20.84
2017-03-29T10:40:38.107Z,20.77
2017-03-29T10:41:48.345Z,20.82
2017-03-29T10:42:58.267Z,20.8
2017-03-29T10:44:08.515Z,20.72
2017-03-29T10:45:18.437Z,20.77
2017-03-29T10:46:28.379Z,20.82
2017-03-29T10:47:38.328Z,20.8
2017-03-29T10:48:48.570Z,20.84
2017-03-29T10:49:58.491Z,20.82
2017-03-29T10:51:08.725Z,20.77
2017-03-29T10:52:18.962Z,20.79
2017-03-29T10:53:29.206Z,20.77
2017-03-29T10:54:39.453Z,20.84
2017-03-29T10:55:49.702Z,20.8
2017-03-29T10:56:59.628Z,20.8
2017-03-29T10:58:09.871Z,20.76
2017-03-29T10:59:19.488Z,20.85
2017-03-29T11:00:29.731Z,20.85
2017-03-29T11:01:39.968Z,20.84
2017-03-29T11:02:50.209Z,20.79
2017-03-29T11:04:00.137Z,20.76
2017-03-29T11:05:10.379Z,20.74
2017-03-29T11:06:20.308Z,20.79
2017-03-29T11:07:30.548Z,20.79
2017-03-29T11:08:40.796Z,20.82
2017-03-29T11:09:51.033Z,20.73
2017-03-29T11:11:00.696Z,20.76
2017-03-29T11:12:10.940Z,20.76
2017-03-29T11:13:20.866Z,20.76
2017-03-29T11:14:30.828Z,20.76
2017-03-29T11:15:41.066Z,20.72
2017-03-29T11:16:51.306Z,20.85
2017-03-29T11:18:01.545Z,20.72
2017-03-29T11:19:11.788Z,20.73
2017-03-29T11:20:21.716Z,20.91
2017-03-29T11:21:31.644Z,20.76
2017-03-29T11:22:41.885Z,20.82
2017-03-29T11:23:52.130Z,20.79
2017-03-29T11:25:02.056Z,20.7
2017-03-29T11:26:12.300Z,20.79
2017-03-29T11:27:22.538Z,20.79
2017-03-29T11:28:32.467Z,20.88
2017-03-29T11:29:42.393Z,20.74
2017-03-29T11:30:52.629Z,20.77
2017-03-29T11:32:02.873Z,20.8
2017-03-29T11:33:13.122Z,20.82
2017-03-29T11:34:23.052Z,20.69
2017-03-29T11:35:32.670Z,20.82
2017-03-29T11:36:42.601Z,20.8
2017-03-29T11:37:52.840Z,20.87
2017-03-29T11:39:03.089Z,20.82
2017-03-29T11:40:12.701Z,20.88
2017-03-29T11:41:22.958Z,20.77
2017-03-29T11:42:32.889Z,20.8
2017-03-29T11:43:43.131Z,20.76
2017-03-29T11:44:53.368Z,20.82
2017-03-29T11:46:03.617Z,20.77
2017-03-29T11:47:13.861Z,20.76
2017-03-29T11:48:24.109Z,20.77
2017-03-29T11:49:34.037Z,20.67
2017-03-29T11:50:43.966Z,20.72
2017-03-29T11:51:54.212Z,20.84
2017-03-29T11:53:03.518Z,20.76
2017-03-29T11:54:13.450Z,20.72
2017-03-29T11:55:23.380Z,20.84
2017-03-29T11:56:32.999Z,20.77
2017-03-29T11:57:43.243Z,20.76
2017-03-29T11:58:53.485Z,20.74
2017-03-29T12:00:03.420Z,20.64
2017-03-29T12:01:13.034Z,20.72
2017-03-29T12:02:22.967Z,20.74
2017-03-29T12:03:32.903Z,20.8
2017-03-29T12:04:42.832Z,20.77
2017-03-29T12:05:53.077Z,20.76
2017-03-29T12:07:02.696Z,20.74
2017-03-29T12:08:12.631Z,20.8
2017-03-29T12:09:22.563Z,20.74
2017-03-29T12:10:32.804Z,20.59
2017-03-29T12:11:43.053Z,20.73
2017-03-29T12:12:52.980Z,20.7
2017-03-29T12:14:03.214Z,20.79
2017-03-29T12:15:13.138Z,20.82
2017-03-29T12:16:23.380Z,20.76
2017-03-29T12:17:33.617Z,20.76
2017-03-29T12:18:43.857Z,20.79
2017-03-29T12:19:54.108Z,20.64
2017-03-29T12:21:04.360Z,20.8
2017-03-29T12:22:14.293Z,20.76
2017-03-29T12:23:24.566Z,20.73
2017-03-29T12:24:34.812Z,20.77
2017-03-29T12:25:45.061Z,20.76
2017-03-29T12:26:54.689Z,20.76
2017-03-29T12:28:04.623Z,20.77
2017-03-29T12:29:14.546Z,20.76
2017-03-29T12:30:24.155Z,20.7
2017-03-29T12:31:34.399Z,20.77
2017-03-29T12:32:44.644Z,20.74
2017-03-29T12:33:54.570Z,20.73
2017-03-29T12:35:04.195Z,20.8
2017-03-29T12:36:13.808Z,20.74
2017-03-29T12:37:24.057Z,20.77
2017-03-29T12:38:34.299Z,20.77
2017-03-29T12:39:43.922Z,20.77
2017-03-29T12:40:54.160Z,20.62
2017-03-29T12:42:04.086Z,20.77
2017-03-29T12:43:14.328Z,20.8
2017-03-29T12:44:24.573Z,20.69
2017-03-29T12:45:34.829Z,20.77
2017-03-29T12:46:44.761Z,20.76
2017-03-29T12:47:54.382Z,20.79
2017-03-29T12:49:04.002Z,20.76
2017-03-29T12:50:13.938Z,20.88
2017-03-29T12:51:23.866Z,20.79
2017-03-29T12:52:33.792Z,20.59
2017-03-29T12:53:43.725Z,20.64
2017-03-29T12:54:53.959Z,20.72
2017-03-29T12:56:04.202Z,20.76
2017-03-29T12:57:14.446Z,20.8
2017-03-29T12:58:24.376Z,20.77
2017-03-29T12:59:33.995Z,20.76
2017-03-29T13:00:43.930Z,20.69
2017-03-29T13:01:53.544Z,20.7
2017-03-29T13:03:03.778Z,20.76
2017-03-29T13:04:14.015Z,20.79
2017-03-29T13:05:24.256Z,20.79
2017-03-29T13:06:34.525Z,20.8
2017-03-29T13:07:44.769Z,20.8
2017-03-29T13:08:55.027Z,20.87
2017-03-29T13:10:05.277Z,20.77
2017-03-29T13:11:15.204Z,20.7
2017-03-29T13:12:25.131Z,20.73
2017-03-29T13:13:35.053Z,20.73
2017-03-29T13:14:45.291Z,20.79
2017-03-29T13:15:55.528Z,20.77
2017-03-29T13:17:05.453Z,20.76
2017-03-29T13:18:15.702Z,20.76
2017-03-29T13:19:25.627Z,20.76
2017-03-29T13:20:35.870Z,20.69
2017-03-29T13:21:46.107Z,20.76
2017-03-29T13:22:56.345Z,20.85
2017-03-29T13:24:06.587Z,20.76
2017-03-29T13:25:16.203Z,20.84
2017-03-29T13:26:26.446Z,20.73
2017-03-29T13:27:36.384Z,20.76
2017-03-29T13:28:46.630Z,20.8
2017-03-29T13:29:56.563Z,20.72
2017-03-29T13:31:06.809Z,20.85
2017-03-29T13:32:17.053Z,20.77
2017-03-29T13:33:26.981Z,20.76
2017-03-29T13:34:37.256Z,20.8
2017-03-29T13:35:47.185Z,20.76
2017-03-29T13:36:56.801Z,20.73
2017-03-29T13:38:06.733Z,20.79
2017-03-29T13:39:16.657Z,20.79
2017-03-29T13:40:26.591Z,20.77
2017-03-29T13:41:36.515Z,20.67
2017-03-29T13:42:46.754Z,20.73
2017-03-29T13:43:56.685Z,20.72
2017-03-29T13:45:06.616Z,20.79
2017-03-29T13:46:16.860Z,20.8
2017-03-29T13:47:26.802Z,20.79
2017-03-29T13:48:36.438Z,20.72
2017-03-29T13:49:46.056Z,20.87
2017-03-29T13:50:56.299Z,20.77
2017-03-29T13:52:06.540Z,20.76
2017-03-29T13:53:16.781Z,20.8
2017-03-29T13:54:27.022Z,20.77
2017-03-29T13:55:36.325Z,20.8
2017-03-29T13:56:46.563Z,20.73
2017-03-29T13:57:56.805Z,20.74
2017-03-29T13:59:07.044Z,20.79
2017-03-29T14:00:16.969Z,20.74
2017-03-29T14:01:26.899Z,20.8
2017-03-29T14:02:37.133Z,20.76
2017-03-29T14:03:47.058Z,20.76
2017-03-29T14:04:56.986Z,20.66
2017-03-29T14:06:06.603Z,20.84
2017-03-29T14:07:16.849Z,20.8
2017-03-29T14:08:27.083Z,20.72
2017-03-29T14:09:37.326Z,20.7
2017-03-29T14:10:47.267Z,20.7
2017-03-29T14:11:57.191Z,20.85
2017-03-29T14:13:07.119Z,20.76
2017-03-29T14:14:17.358Z,20.76
2017-03-29T14:15:27.288Z,20.85
2017-03-29T14:16:37.533Z,20.79
2017-03-29T14:17:47.776Z,20.66
2017-03-29T14:18:57.704Z,20.76
2017-03-29T14:20:07.635Z,20.73
2017-03-29T14:21:17.559Z,20.82
2017-03-29T14:22:27.833Z,20.76
2017-03-29T14:23:38.079Z,20.8
2017-03-29T14:24:47.699Z,20.77
2017-03-29T14:25:57.626Z,20.77
2017-03-29T14:27:07.863Z,20.85
2017-03-29T14:28:18.105Z,20.79
2017-03-29T14:29:28.340Z,20.79
2017-03-29T14:30:38.268Z,20.8
2017-03-29T14:31:48.206Z,20.87
2017-03-29T14:32:58.141Z,20.79
2017-03-29T14:34:08.067Z,20.8
2017-03-29T14:35:17.366Z,20.8
2017-03-29T14:36:27.341Z,20.76
2017-03-29T14:37:37.589Z,20.84
2017-03-29T14:38:47.547Z,20.76
2017-03-29T14:39:57.792Z,20.73
2017-03-29T14:41:07.408Z,20.84
2017-03-29T14:42:17.343Z,20.8
2017-03-29T14:43:26.966Z,20.8
2017-03-29T14:44:36.891Z,20.66
2017-03-29T14:45:47.135Z,20.73
2017-03-29T14:46:57.077Z,20.79
2017-03-29T14:48:07.004Z,20.74
2017-03-29T14:49:16.967Z,20.87
2017-03-29T14:50:27.929Z,20.74
2017-03-29T14:51:38.781Z,20.8
2017-03-29T14:52:49.470Z,20.79
2017-03-29T14:54:00.065Z,20.82
2017-03-29T14:55:11.050Z,20.8
2017-03-29T14:56:20.819Z,20.76
2017-03-29T14:57:30.902Z,20.8
2017-03-29T14:58:41.612Z,20.7
2017-03-29T14:59:51.935Z,20.84
2017-03-29T15:01:02.587Z,20.76
2017-03-29T15:02:12.856Z,20.74
2017-03-29T15:03:23.472Z,20.79
2017-03-29T15:04:33.353Z,20.88
2017-03-29T15:05:43.251Z,20.87
2017-03-29T15:06:53.794Z,20.88